sensor_id;sensor_type;location;lat;lon;timestamp;P1;durP1;ratioP1;P2;durP2;ratioP2
17937;SDS011;16051;53.024;8.630;2022-09-27T00:00:13;13.70;;;12.30;;
17937;SDS011;16051;53.024;8.630;2022-09-27T00:04:16;15.33;;;13.27;;
17937;SDS011;16051;53.024;8.630;2022-09-27T00:08:18;14.40;;;11.73;;
17937;SDS011;16051;53.024;8.630;2022-09-27T00:12:21;14.90;;;12.13;;
17937;SDS011;16051;53.024;8.630;2022-09-27T00:16:24;15.97;;;12.70;;
17937;SDS011;16051;53.024;8.630;2022-09-27T00:20:29;15.67;;;12.77;;
17937;SDS011;16051;53.024;8.630;2022-09-27T00:24:31;14.23;;;12.17;;
17937;SDS011;16051;53.024;8.630;2022-09-27T00:28:35;14.87;;;11.27;;
17937;SDS011;16051;53.024;8.630;2022-09-27T00:32:38;13.83;;;12.17;;
17937;SDS011;16051;53.024;8.630;2022-09-27T00:36:40;13.30;;;11.47;;
17937;SDS011;16051;53.024;8.630;2022-09-27T00:40:42;14.20;;;10.83;;
17937;SDS011;16051;53.024;8.630;2022-09-27T00:44:57;13.57;;;10.03;;
17937;SDS011;16051;53.024;8.630;2022-09-27T00:49:18;13.93;;;10.90;;
17937;SDS011;16051;53.024;8.630;2022-09-27T00:57:35;12.13;;;8.90;;
17937;SDS011;16051;53.024;8.630;2022-09-27T01:01:40;10.87;;;8.63;;
17937;SDS011;16051;53.024;8.630;2022-09-27T01:05:44;11.40;;;7.87;;
17937;SDS011;16051;53.024;8.630;2022-09-27T01:09:46;10.23;;;7.83;;
17937;SDS011;16051;53.024;8.630;2022-09-27T01:13:53;12.00;;;7.17;;
17937;SDS011;16051;53.024;8.630;2022-09-27T01:18:22;7.23;;;6.53;;
17937;SDS011;16051;53.024;8.630;2022-09-27T01:22:38;10.77;;;7.43;;
17937;SDS011;16051;53.024;8.630;2022-09-27T01:27:06;8.47;;;6.33;;
17937;SDS011;16051;53.024;8.630;2022-09-27T01:31:53;11.27;;;6.50;;
17937;SDS011;16051;53.024;8.630;2022-09-27T01:36:07;9.67;;;6.17;;
17937;SDS011;16051;53.024;8.630;2022-09-27T01:40:22;7.43;;;5.67;;
17937;SDS011;16051;53.024;8.630;2022-09-27T01:44:34;8.77;;;5.10;;
17937;SDS011;16051;53.024;8.630;2022-09-27T01:48:43;9.50;;;5.50;;
17937;SDS011;16051;53.024;8.630;2022-09-27T01:52:52;7.23;;;5.23;;
17937;SDS011;16051;53.024;8.630;2022-09-27T01:57:07;10.53;;;5.40;;
17937;SDS011;16051;53.024;8.630;2022-09-27T02:01:17;5.60;;;4.07;;
17937;SDS011;16051;53.024;8.630;2022-09-27T02:05:24;7.17;;;3.87;;
17937;SDS011;16051;53.024;8.630;2022-09-27T02:09:34;4.70;;;3.20;;
17937;SDS011;16051;53.024;8.630;2022-09-27T02:13:44;4.30;;;3.13;;
17937;SDS011;16051;53.024;8.630;2022-09-27T02:17:54;3.40;;;2.53;;
17937;SDS011;16051;53.024;8.630;2022-09-27T02:22:05;5.53;;;2.60;;
17937;SDS011;16051;53.024;8.630;2022-09-27T02:26:18;5.27;;;2.30;;
17937;SDS011;16051;53.024;8.630;2022-09-27T02:30:24;6.60;;;2.50;;
17937;SDS011;16051;53.024;8.630;2022-09-27T02:34:28;3.33;;;1.80;;
17937;SDS011;16051;53.024;8.630;2022-09-27T02:38:38;5.73;;;1.80;;
17937;SDS011;16051;53.024;8.630;2022-09-27T02:42:49;2.57;;;1.57;;
17937;SDS011;16051;53.024;8.630;2022-09-27T02:47:10;5.13;;;1.80;;
17937;SDS011;16051;53.024;8.630;2022-09-27T02:51:33;4.27;;;1.23;;
17937;SDS011;16051;53.024;8.630;2022-09-27T02:55:50;3.23;;;1.40;;
17937;SDS011;16051;53.024;8.630;2022-09-27T03:00:04;2.00;;;1.50;;
17937;SDS011;16051;53.024;8.630;2022-09-27T03:04:11;2.77;;;1.50;;
17937;SDS011;16051;53.024;8.630;2022-09-27T03:08:22;1.57;;;1.30;;
17937;SDS011;16051;53.024;8.630;2022-09-27T03:12:26;3.93;;;1.50;;
17937;SDS011;16051;53.024;8.630;2022-09-27T03:16:28;3.00;;;1.70;;
17937;SDS011;16051;53.024;8.630;2022-09-27T03:20:30;6.23;;;1.53;;
17937;SDS011;16051;53.024;8.630;2022-09-27T03:24:33;1.63;;;1.50;;
17937;SDS011;16051;53.024;8.630;2022-09-27T03:28:37;5.07;;;2.13;;
17937;SDS011;16051;53.024;8.630;2022-09-27T03:32:40;2.60;;;1.90;;
17937;SDS011;16051;53.024;8.630;2022-09-27T03:36:43;2.13;;;1.87;;
17937;SDS011;16051;53.024;8.630;2022-09-27T03:40:45;3.37;;;2.70;;
17937;SDS011;16051;53.024;8.630;2022-09-27T03:44:49;6.60;;;3.20;;
17937;SDS011;16051;53.024;8.630;2022-09-27T03:48:51;4.80;;;3.20;;
17937;SDS011;16051;53.024;8.630;2022-09-27T03:52:54;3.90;;;3.50;;
17937;SDS011;16051;53.024;8.630;2022-09-27T03:56:56;5.97;;;3.83;;
17937;SDS011;16051;53.024;8.630;2022-09-27T04:00:59;5.00;;;3.70;;
17937;SDS011;16051;53.024;8.630;2022-09-27T04:05:02;4.80;;;3.57;;
17937;SDS011;16051;53.024;8.630;2022-09-27T04:09:05;5.27;;;2.87;;
17937;SDS011;16051;53.024;8.630;2022-09-27T04:13:07;6.37;;;3.30;;
17937;SDS011;16051;53.024;8.630;2022-09-27T04:17:10;4.73;;;3.20;;
17937;SDS011;16051;53.024;8.630;2022-09-27T04:21:13;8.57;;;3.57;;
17937;SDS011;16051;53.024;8.630;2022-09-27T04:25:22;6.13;;;3.40;;
17937;SDS011;16051;53.024;8.630;2022-09-27T04:29:24;5.93;;;3.80;;
17937;SDS011;16051;53.024;8.630;2022-09-27T04:33:28;4.73;;;3.27;;
17937;SDS011;16051;53.024;8.630;2022-09-27T04:37:30;3.47;;;2.70;;
17937;SDS011;16051;53.024;8.630;2022-09-27T04:41:32;6.77;;;3.07;;
17937;SDS011;16051;53.024;8.630;2022-09-27T04:45:45;4.83;;;2.80;;
17937;SDS011;16051;53.024;8.630;2022-09-27T04:49:48;3.60;;;2.53;;
17937;SDS011;16051;53.024;8.630;2022-09-27T04:53:51;5.63;;;2.60;;
17937;SDS011;16051;53.024;8.630;2022-09-27T04:57:53;4.07;;;2.60;;
17937;SDS011;16051;53.024;8.630;2022-09-27T05:01:55;2.80;;;2.43;;
17937;SDS011;16051;53.024;8.630;2022-09-27T05:06:01;6.13;;;2.60;;
17937;SDS011;16051;53.024;8.630;2022-09-27T05:10:03;4.03;;;2.50;;
17937;SDS011;16051;53.024;8.630;2022-09-27T05:14:24;4.90;;;2.70;;
17937;SDS011;16051;53.024;8.630;2022-09-27T05:18:26;5.17;;;2.40;;
17937;SDS011;16051;53.024;8.630;2022-09-27T05:22:29;5.37;;;2.70;;
17937;SDS011;16051;53.024;8.630;2022-09-27T05:26:32;5.30;;;2.90;;
17937;SDS011;16051;53.024;8.630;2022-09-27T05:30:34;4.93;;;2.40;;
17937;SDS011;16051;53.024;8.630;2022-09-27T05:34:36;5.40;;;2.30;;
17937;SDS011;16051;53.024;8.630;2022-09-27T05:38:40;3.60;;;2.30;;
17937;SDS011;16051;53.024;8.630;2022-09-27T05:42:42;6.33;;;2.93;;
17937;SDS011;16051;53.024;8.630;2022-09-27T05:46:44;3.07;;;2.70;;
17937;SDS011;16051;53.024;8.630;2022-09-27T05:50:47;5.20;;;2.63;;
17937;SDS011;16051;53.024;8.630;2022-09-27T05:54:50;4.13;;;3.27;;
17937;SDS011;16051;53.024;8.630;2022-09-27T05:58:52;4.33;;;2.60;;
17937;SDS011;16051;53.024;8.630;2022-09-27T06:02:55;3.77;;;2.80;;
17937;SDS011;16051;53.024;8.630;2022-09-27T06:06:59;3.13;;;2.33;;
17937;SDS011;16051;53.024;8.630;2022-09-27T06:11:03;5.53;;;2.90;;
17937;SDS011;16051;53.024;8.630;2022-09-27T06:15:09;2.67;;;2.47;;
17937;SDS011;16051;53.024;8.630;2022-09-27T06:19:11;5.00;;;2.67;;
17937;SDS011;16051;53.024;8.630;2022-09-27T06:23:20;3.23;;;2.40;;
17937;SDS011;16051;53.024;8.630;2022-09-27T06:27:25;3.13;;;2.20;;
17937;SDS011;16051;53.024;8.630;2022-09-27T06:31:28;5.30;;;2.90;;
17937;SDS011;16051;53.024;8.630;2022-09-27T06:35:33;5.13;;;2.10;;
17937;SDS011;16051;53.024;8.630;2022-09-27T06:39:45;6.57;;;1.93;;
17937;SDS011;16051;53.024;8.630;2022-09-27T06:43:49;3.40;;;1.63;;
17937;SDS011;16051;53.024;8.630;2022-09-27T06:47:51;4.27;;;1.73;;
17937;SDS011;16051;53.024;8.630;2022-09-27T06:51:54;2.07;;;1.77;;
17937;SDS011;16051;53.024;8.630;2022-09-27T06:55:56;5.63;;;1.90;;
17937;SDS011;16051;53.024;8.630;2022-09-27T07:00:02;3.10;;;1.20;;
17937;SDS011;16051;53.024;8.630;2022-09-27T07:04:22;4.37;;;1.83;;
17937;SDS011;16051;53.024;8.630;2022-09-27T07:08:24;2.37;;;1.50;;
17937;SDS011;16051;53.024;8.630;2022-09-27T07:12:28;1.63;;;1.30;;
17937;SDS011;16051;53.024;8.630;2022-09-27T07:16:32;2.60;;;1.33;;
17937;SDS011;16051;53.024;8.630;2022-09-27T07:20:35;2.67;;;1.27;;
17937;SDS011;16051;53.024;8.630;2022-09-27T07:24:38;3.57;;;1.60;;
17937;SDS011;16051;53.024;8.630;2022-09-27T07:28:41;2.63;;;1.27;;
17937;SDS011;16051;53.024;8.630;2022-09-27T07:32:45;1.37;;;1.00;;
17937;SDS011;16051;53.024;8.630;2022-09-27T07:36:47;3.73;;;1.50;;
17937;SDS011;16051;53.024;8.630;2022-09-27T07:40:49;1.90;;;1.57;;
17937;SDS011;16051;53.024;8.630;2022-09-27T07:49:15;2.67;;;1.13;;
17937;SDS011;16051;53.024;8.630;2022-09-27T07:53:17;2.70;;;1.40;;
17937;SDS011;16051;53.024;8.630;2022-09-27T07:57:20;1.97;;;1.10;;
17937;SDS011;16051;53.024;8.630;2022-09-27T08:01:23;1.30;;;1.03;;
17937;SDS011;16051;53.024;8.630;2022-09-27T08:05:27;3.13;;;1.20;;
17937;SDS011;16051;53.024;8.630;2022-09-27T08:09:29;1.53;;;0.83;;
17937;SDS011;16051;53.024;8.630;2022-09-27T08:13:32;0.97;;;0.80;;
17937;SDS011;16051;53.024;8.630;2022-09-27T08:17:34;3.47;;;1.00;;
17937;SDS011;16051;53.024;8.630;2022-09-27T08:21:37;1.87;;;0.90;;
17937;SDS011;16051;53.024;8.630;2022-09-27T08:25:42;2.33;;;1.00;;
17937;SDS011;16051;53.024;8.630;2022-09-27T08:29:47;3.27;;;1.10;;
17937;SDS011;16051;53.024;8.630;2022-09-27T08:33:49;2.33;;;1.10;;
17937;SDS011;16051;53.024;8.630;2022-09-27T08:37:54;1.60;;;0.70;;
17937;SDS011;16051;53.024;8.630;2022-09-27T08:42:01;2.60;;;0.80;;
17937;SDS011;16051;53.024;8.630;2022-09-27T08:46:20;1.77;;;0.83;;
17937;SDS011;16051;53.024;8.630;2022-09-27T08:50:35;2.17;;;0.80;;
17937;SDS011;16051;53.024;8.630;2022-09-27T08:54:43;2.10;;;0.80;;
17937;SDS011;16051;53.024;8.630;2022-09-27T08:58:48;1.53;;;0.80;;
17937;SDS011;16051;53.024;8.630;2022-09-27T09:03:07;4.17;;;1.07;;
17937;SDS011;16051;53.024;8.630;2022-09-27T09:07:32;1.43;;;0.90;;
17937;SDS011;16051;53.024;8.630;2022-09-27T09:11:51;5.97;;;1.10;;
17937;SDS011;16051;53.024;8.630;2022-09-27T09:16:21;1.07;;;0.80;;
17937;SDS011;16051;53.024;8.630;2022-09-27T09:20:57;3.00;;;0.90;;
17937;SDS011;16051;53.024;8.630;2022-09-27T09:25:14;12.47;;;1.47;;
17937;SDS011;16051;53.024;8.630;2022-09-27T09:29:33;3.40;;;1.10;;
17937;SDS011;16051;53.024;8.630;2022-09-27T09:33:54;3.37;;;0.90;;
17937;SDS011;16051;53.024;8.630;2022-09-27T09:38:02;2.23;;;1.17;;
17937;SDS011;16051;53.024;8.630;2022-09-27T09:42:15;2.20;;;1.00;;
17937;SDS011;16051;53.024;8.630;2022-09-27T09:46:27;2.13;;;1.10;;
17937;SDS011;16051;53.024;8.630;2022-09-27T09:50:39;2.70;;;1.03;;
17937;SDS011;16051;53.024;8.630;2022-09-27T09:54:47;2.83;;;1.00;;
17937;SDS011;16051;53.024;8.630;2022-09-27T09:58:55;1.27;;;0.90;;
17937;SDS011;16051;53.024;8.630;2022-09-27T10:03:03;2.30;;;1.10;;
17937;SDS011;16051;53.024;8.630;2022-09-27T10:07:06;3.47;;;1.20;;
17937;SDS011;16051;53.024;8.630;2022-09-27T10:11:12;0.70;;;0.70;;
17937;SDS011;16051;53.024;8.630;2022-09-27T10:15:25;2.57;;;1.10;;
17937;SDS011;16051;53.024;8.630;2022-09-27T10:19:44;2.07;;;1.17;;
17937;SDS011;16051;53.024;8.630;2022-09-27T10:24:01;3.20;;;1.10;;
17937;SDS011;16051;53.024;8.630;2022-09-27T10:28:10;2.70;;;1.30;;
17937;SDS011;16051;53.024;8.630;2022-09-27T10:32:33;2.60;;;1.20;;
17937;SDS011;16051;53.024;8.630;2022-09-27T10:36:38;1.87;;;1.27;;
17937;SDS011;16051;53.024;8.630;2022-09-27T10:40:40;2.00;;;1.23;;
17937;SDS011;16051;53.024;8.630;2022-09-27T10:44:43;1.83;;;1.67;;
17937;SDS011;16051;53.024;8.630;2022-09-27T10:48:45;2.33;;;1.43;;
17937;SDS011;16051;53.024;8.630;2022-09-27T10:52:59;4.03;;;1.73;;
17937;SDS011;16051;53.024;8.630;2022-09-27T10:57:05;1.97;;;1.73;;
17937;SDS011;16051;53.024;8.630;2022-09-27T11:01:21;4.13;;;1.70;;
17937;SDS011;16051;53.024;8.630;2022-09-27T11:05:29;1.57;;;1.47;;
17937;SDS011;16051;53.024;8.630;2022-09-27T11:09:45;2.70;;;1.73;;
17937;SDS011;16051;53.024;8.630;2022-09-27T11:13:56;2.90;;;1.60;;
17937;SDS011;16051;53.024;8.630;2022-09-27T11:18:04;4.80;;;1.77;;
17937;SDS011;16051;53.024;8.630;2022-09-27T11:22:21;4.97;;;2.70;;
17937;SDS011;16051;53.024;8.630;2022-09-27T11:26:59;5.17;;;2.53;;
17937;SDS011;16051;53.024;8.630;2022-09-27T11:31:33;5.27;;;2.20;;
17937;SDS011;16051;53.024;8.630;2022-09-27T11:35:48;2.83;;;1.83;;
17937;SDS011;16051;53.024;8.630;2022-09-27T11:40:10;2.57;;;2.00;;
17937;SDS011;16051;53.024;8.630;2022-09-27T11:44:30;2.27;;;1.67;;
17937;SDS011;16051;53.024;8.630;2022-09-27T11:53:46;4.17;;;1.80;;
17937;SDS011;16051;53.024;8.630;2022-09-27T11:58:08;4.10;;;1.60;;
17937;SDS011;16051;53.024;8.630;2022-09-27T12:02:26;3.03;;;1.60;;
17937;SDS011;16051;53.024;8.630;2022-09-27T12:06:56;2.43;;;1.60;;
17937;SDS011;16051;53.024;8.630;2022-09-27T12:11:11;3.23;;;1.50;;
17937;SDS011;16051;53.024;8.630;2022-09-27T12:15:21;2.53;;;1.40;;
17937;SDS011;16051;53.024;8.630;2022-09-27T12:19:39;3.83;;;2.30;;
17937;SDS011;16051;53.024;8.630;2022-09-27T12:23:49;3.03;;;1.50;;
17937;SDS011;16051;53.024;8.630;2022-09-27T12:27:59;2.20;;;1.23;;
17937;SDS011;16051;53.024;8.630;2022-09-27T12:32:23;1.93;;;1.33;;
17937;SDS011;16051;53.024;8.630;2022-09-27T12:36:34;1.57;;;1.30;;
17937;SDS011;16051;53.024;8.630;2022-09-27T12:40:43;2.23;;;1.53;;
17937;SDS011;16051;53.024;8.630;2022-09-27T12:49:14;5.77;;;1.23;;
17937;SDS011;16051;53.024;8.630;2022-09-27T12:57:50;3.77;;;1.77;;
17937;SDS011;16051;53.024;8.630;2022-09-27T13:02:46;2.40;;;1.57;;
17937;SDS011;16051;53.024;8.630;2022-09-27T13:07:34;1.00;;;0.60;;
17937;SDS011;16051;53.024;8.630;2022-09-27T13:11:57;2.00;;;1.03;;
17937;SDS011;16051;53.024;8.630;2022-09-27T13:16:10;2.40;;;0.90;;
17937;SDS011;16051;53.024;8.630;2022-09-27T13:20:35;2.97;;;1.23;;
17937;SDS011;16051;53.024;8.630;2022-09-27T13:24:48;1.67;;;0.70;;
17937;SDS011;16051;53.024;8.630;2022-09-27T13:29:00;2.37;;;0.87;;
17937;SDS011;16051;53.024;8.630;2022-09-27T13:37:47;1.47;;;0.60;;
17937;SDS011;16051;53.024;8.630;2022-09-27T13:42:01;0.30;;;0.30;;
17937;SDS011;16051;53.024;8.630;2022-09-27T13:46:17;1.83;;;0.50;;
17937;SDS011;16051;53.024;8.630;2022-09-27T13:50:25;0.50;;;0.40;;
17937;SDS011;16051;53.024;8.630;2022-09-27T13:54:38;1.57;;;0.30;;
17937;SDS011;16051;53.024;8.630;2022-09-27T13:58:51;1.80;;;0.50;;
17937;SDS011;16051;53.024;8.630;2022-09-27T14:07:35;1.13;;;0.50;;
17937;SDS011;16051;53.024;8.630;2022-09-27T14:11:42;3.23;;;0.90;;
17937;SDS011;16051;53.024;8.630;2022-09-27T14:15:53;0.80;;;0.60;;
17937;SDS011;16051;53.024;8.630;2022-09-27T14:20:03;2.27;;;1.03;;
17937;SDS011;16051;53.024;8.630;2022-09-27T14:24:18;2.33;;;1.00;;
17937;SDS011;16051;53.024;8.630;2022-09-27T14:28:28;1.97;;;1.00;;
17937;SDS011;16051;53.024;8.630;2022-09-27T14:32:33;1.17;;;0.70;;
17937;SDS011;16051;53.024;8.630;2022-09-27T14:36:48;1.47;;;0.40;;
17937;SDS011;16051;53.024;8.630;2022-09-27T14:41:09;2.90;;;1.70;;
17937;SDS011;16051;53.024;8.630;2022-09-27T14:45:15;2.63;;;1.60;;
17937;SDS011;16051;53.024;8.630;2022-09-27T14:49:23;1.23;;;1.00;;
17937;SDS011;16051;53.024;8.630;2022-09-27T14:53:28;1.47;;;0.70;;
17937;SDS011;16051;53.024;8.630;2022-09-27T14:57:33;1.60;;;0.87;;
17937;SDS011;16051;53.024;8.630;2022-09-27T15:01:36;1.63;;;1.07;;
17937;SDS011;16051;53.024;8.630;2022-09-27T15:05:42;0.90;;;0.83;;
17937;SDS011;16051;53.024;8.630;2022-09-27T15:09:51;0.90;;;0.90;;
17937;SDS011;16051;53.024;8.630;2022-09-27T15:13:54;0.70;;;0.60;;
17937;SDS011;16051;53.024;8.630;2022-09-27T15:17:57;1.67;;;0.77;;
17937;SDS011;16051;53.024;8.630;2022-09-27T15:26:36;2.37;;;1.20;;
17937;SDS011;16051;53.024;8.630;2022-09-27T15:34:56;3.60;;;3.30;;
17937;SDS011;16051;53.024;8.630;2022-09-27T15:39:08;2.70;;;2.50;;
17937;SDS011;16051;53.024;8.630;2022-09-27T15:43:20;2.63;;;1.53;;
17937;SDS011;16051;53.024;8.630;2022-09-27T15:51:55;1.67;;;1.30;;
17937;SDS011;16051;53.024;8.630;2022-09-27T16:00:53;1.17;;;0.50;;
17937;SDS011;16051;53.024;8.630;2022-09-27T16:04:57;2.53;;;1.27;;
17937;SDS011;16051;53.024;8.630;2022-09-27T16:08:59;0.83;;;0.83;;
17937;SDS011;16051;53.024;8.630;2022-09-27T16:13:01;1.20;;;1.10;;
17937;SDS011;16051;53.024;8.630;2022-09-27T16:17:05;0.77;;;0.73;;
17937;SDS011;16051;53.024;8.630;2022-09-27T16:21:07;1.07;;;0.60;;
17937;SDS011;16051;53.024;8.630;2022-09-27T16:25:09;1.47;;;0.70;;
17937;SDS011;16051;53.024;8.630;2022-09-27T16:29:12;0.50;;;0.50;;
17937;SDS011;16051;53.024;8.630;2022-09-27T16:33:17;1.30;;;0.90;;
17937;SDS011;16051;53.024;8.630;2022-09-27T16:37:19;1.90;;;1.27;;
17937;SDS011;16051;53.024;8.630;2022-09-27T16:41:37;1.50;;;1.40;;
17937;SDS011;16051;53.024;8.630;2022-09-27T16:45:41;1.07;;;1.00;;
17937;SDS011;16051;53.024;8.630;2022-09-27T16:49:44;1.03;;;0.90;;
17937;SDS011;16051;53.024;8.630;2022-09-27T16:54:05;0.77;;;0.73;;
17937;SDS011;16051;53.024;8.630;2022-09-27T16:58:08;1.10;;;0.80;;
17937;SDS011;16051;53.024;8.630;2022-09-27T17:02:10;1.43;;;1.00;;
17937;SDS011;16051;53.024;8.630;2022-09-27T17:06:14;1.73;;;1.60;;
17937;SDS011;16051;53.024;8.630;2022-09-27T17:10:16;2.50;;;1.97;;
17937;SDS011;16051;53.024;8.630;2022-09-27T17:18:50;2.57;;;1.80;;
17937;SDS011;16051;53.024;8.630;2022-09-27T17:22:53;2.10;;;1.90;;
17937;SDS011;16051;53.024;8.630;2022-09-27T17:26:56;1.00;;;1.00;;
17937;SDS011;16051;53.024;8.630;2022-09-27T17:31:12;2.30;;;2.00;;
17937;SDS011;16051;53.024;8.630;2022-09-27T17:35:16;5.80;;;4.13;;
17937;SDS011;16051;53.024;8.630;2022-09-27T17:39:20;6.30;;;5.80;;
17937;SDS011;16051;53.024;8.630;2022-09-27T17:43:22;5.47;;;4.17;;
17937;SDS011;16051;53.024;8.630;2022-09-27T17:47:25;4.33;;;2.57;;
17937;SDS011;16051;53.024;8.630;2022-09-27T17:56:10;10.53;;;6.53;;
17937;SDS011;16051;53.024;8.630;2022-09-27T18:00:13;5.03;;;2.90;;
17937;SDS011;16051;53.024;8.630;2022-09-27T18:04:17;7.67;;;4.93;;
17937;SDS011;16051;53.024;8.630;2022-09-27T18:08:20;4.47;;;3.20;;
17937;SDS011;16051;53.024;8.630;2022-09-27T18:12:23;5.33;;;3.50;;
17937;SDS011;16051;53.024;8.630;2022-09-27T18:20:59;8.23;;;6.40;;
17937;SDS011;16051;53.024;8.630;2022-09-27T18:25:02;4.50;;;3.70;;
17937;SDS011;16051;53.024;8.630;2022-09-27T18:29:08;5.50;;;5.00;;
17937;SDS011;16051;53.024;8.630;2022-09-27T18:33:13;2.00;;;1.77;;
17937;SDS011;16051;53.024;8.630;2022-09-27T18:37:15;1.90;;;1.80;;
17937;SDS011;16051;53.024;8.630;2022-09-27T18:41:18;1.20;;;0.80;;
17937;SDS011;16051;53.024;8.630;2022-09-27T18:45:34;1.70;;;1.60;;
17937;SDS011;16051;53.024;8.630;2022-09-27T18:49:40;2.77;;;2.57;;
17937;SDS011;16051;53.024;8.630;2022-09-27T18:53:42;1.93;;;1.47;;
17937;SDS011;16051;53.024;8.630;2022-09-27T18:57:52;2.27;;;1.60;;
17937;SDS011;16051;53.024;8.630;2022-09-27T19:02:07;2.17;;;1.50;;
17937;SDS011;16051;53.024;8.630;2022-09-27T19:06:17;1.30;;;1.20;;
17937;SDS011;16051;53.024;8.630;2022-09-27T19:10:21;0.90;;;0.90;;
17937;SDS011;16051;53.024;8.630;2022-09-27T19:14:23;3.90;;;3.60;;
17937;SDS011;16051;53.024;8.630;2022-09-27T19:22:56;7.00;;;6.30;;
17937;SDS011;16051;53.024;8.630;2022-09-27T19:26:59;9.90;;;6.43;;
17937;SDS011;16051;53.024;8.630;2022-09-27T19:35:32;5.90;;;3.40;;
17937;SDS011;16051;53.024;8.630;2022-09-27T19:39:40;3.40;;;3.07;;
17937;SDS011;16051;53.024;8.630;2022-09-27T19:43:50;5.50;;;3.73;;
17937;SDS011;16051;53.024;8.630;2022-09-27T19:47:53;4.60;;;4.00;;
17937;SDS011;16051;53.024;8.630;2022-09-27T19:51:57;7.17;;;4.80;;
17937;SDS011;16051;53.024;8.630;2022-09-27T19:56:00;5.30;;;3.90;;
17937;SDS011;16051;53.024;8.630;2022-09-27T20:00:05;2.90;;;2.10;;
17937;SDS011;16051;53.024;8.630;2022-09-27T20:04:15;2.60;;;1.87;;
17937;SDS011;16051;53.024;8.630;2022-09-27T20:08:18;2.53;;;1.70;;
17937;SDS011;16051;53.024;8.630;2022-09-27T20:12:21;2.77;;;1.70;;
17937;SDS011;16051;53.024;8.630;2022-09-27T20:16:24;1.47;;;1.37;;
17937;SDS011;16051;53.024;8.630;2022-09-27T20:20:28;1.27;;;1.13;;
17937;SDS011;16051;53.024;8.630;2022-09-27T20:24:32;2.57;;;1.20;;
17937;SDS011;16051;53.024;8.630;2022-09-27T20:28:38;1.33;;;1.03;;
17937;SDS011;16051;53.024;8.630;2022-09-27T20:32:42;2.80;;;1.70;;
17937;SDS011;16051;53.024;8.630;2022-09-27T20:37:04;4.27;;;2.40;;
17937;SDS011;16051;53.024;8.630;2022-09-27T20:41:08;7.57;;;5.00;;
17937;SDS011;16051;53.024;8.630;2022-09-27T20:45:11;10.97;;;6.67;;
17937;SDS011;16051;53.024;8.630;2022-09-27T20:49:27;6.43;;;4.50;;
17937;SDS011;16051;53.024;8.630;2022-09-27T20:53:29;2.47;;;2.03;;
17937;SDS011;16051;53.024;8.630;2022-09-27T20:57:42;1.80;;;1.53;;
17937;SDS011;16051;53.024;8.630;2022-09-27T21:01:45;2.67;;;2.23;;
17937;SDS011;16051;53.024;8.630;2022-09-27T21:05:52;2.17;;;1.60;;
17937;SDS011;16051;53.024;8.630;2022-09-27T21:09:55;2.00;;;1.90;;
17937;SDS011;16051;53.024;8.630;2022-09-27T21:14:08;2.70;;;2.10;;
17937;SDS011;16051;53.024;8.630;2022-09-27T21:18:10;2.77;;;2.20;;
17937;SDS011;16051;53.024;8.630;2022-09-27T21:22:13;3.10;;;1.70;;
17937;SDS011;16051;53.024;8.630;2022-09-27T21:26:16;1.43;;;1.33;;
17937;SDS011;16051;53.024;8.630;2022-09-27T21:34:42;1.63;;;1.50;;
17937;SDS011;16051;53.024;8.630;2022-09-27T21:38:44;2.20;;;2.00;;
17937;SDS011;16051;53.024;8.630;2022-09-27T21:42:48;2.60;;;1.73;;
17937;SDS011;16051;53.024;8.630;2022-09-27T21:46:52;3.77;;;2.10;;
17937;SDS011;16051;53.024;8.630;2022-09-27T21:51:04;2.50;;;1.80;;
17937;SDS011;16051;53.024;8.630;2022-09-27T21:55:08;2.73;;;2.10;;
17937;SDS011;16051;53.024;8.630;2022-09-27T21:59:11;2.33;;;1.90;;
17937;SDS011;16051;53.024;8.630;2022-09-27T22:03:18;2.77;;;2.07;;
17937;SDS011;16051;53.024;8.630;2022-09-27T22:07:21;2.20;;;2.00;;
17937;SDS011;16051;53.024;8.630;2022-09-27T22:11:37;2.47;;;2.27;;
17937;SDS011;16051;53.024;8.630;2022-09-27T22:15:43;2.70;;;1.90;;
17937;SDS011;16051;53.024;8.630;2022-09-27T22:19:46;1.83;;;1.70;;
17937;SDS011;16051;53.024;8.630;2022-09-27T22:23:51;3.03;;;2.20;;
17937;SDS011;16051;53.024;8.630;2022-09-27T22:27:55;3.60;;;2.40;;
17937;SDS011;16051;53.024;8.630;2022-09-27T22:31:57;2.70;;;2.50;;
17937;SDS011;16051;53.024;8.630;2022-09-27T22:36:01;2.30;;;2.10;;
17937;SDS011;16051;53.024;8.630;2022-09-27T22:44:36;2.80;;;2.50;;
17937;SDS011;16051;53.024;8.630;2022-09-27T22:48:38;3.00;;;2.30;;
17937;SDS011;16051;53.024;8.630;2022-09-27T22:52:42;3.57;;;2.53;;
17937;SDS011;16051;53.024;8.630;2022-09-27T22:56:44;3.60;;;3.00;;
17937;SDS011;16051;53.024;8.630;2022-09-27T23:00:46;4.23;;;3.00;;
17937;SDS011;16051;53.024;8.630;2022-09-27T23:04:49;2.97;;;2.67;;
17937;SDS011;16051;53.024;8.630;2022-09-27T23:08:52;2.70;;;2.50;;
17937;SDS011;16051;53.024;8.630;2022-09-27T23:12:54;2.83;;;2.60;;
17937;SDS011;16051;53.024;8.630;2022-09-27T23:16:57;3.23;;;2.70;;
17937;SDS011;16051;53.024;8.630;2022-09-27T23:21:01;3.07;;;2.77;;
17937;SDS011;16051;53.024;8.630;2022-09-27T23:29:20;4.13;;;2.80;;
17937;SDS011;16051;53.024;8.630;2022-09-27T23:33:23;4.13;;;2.97;;
17937;SDS011;16051;53.024;8.630;2022-09-27T23:41:54;2.77;;;2.50;;
17937;SDS011;16051;53.024;8.630;2022-09-27T23:45:57;2.93;;;2.60;;
17937;SDS011;16051;53.024;8.630;2022-09-27T23:49:59;3.23;;;2.53;;
17937;SDS011;16051;53.024;8.630;2022-09-27T23:54:01;3.93;;;3.20;;
17937;SDS011;16051;53.024;8.630;2022-09-27T23:58:05;3.30;;;2.60;;
